createdAt,value
2022-09-11T00:01:37.492Z,93524.51
2022-09-11T00:06:44.211Z,93514.55
2022-09-11T00:11:50.921Z,93510.08
2022-09-11T00:16:57.646Z,93510.26
2022-09-11T00:22:04.340Z,93506.98
2022-09-11T00:27:11.019Z,93514.64
2022-09-11T00:32:17.735Z,93513.56
2022-09-11T00:37:24.453Z,93514.18
2022-09-11T00:42:31.194Z,93514.06
2022-09-11T00:47:39.326Z,93516.92
2022-09-11T00:52:59.385Z,93513.75
2022-09-11T00:58:13.572Z,93508.45
2022-09-11T01:03:20.593Z,93498.30
2022-09-11T01:08:29.940Z,93501.66
2022-09-11T01:13:56.370Z,93493.01
2022-09-11T01:19:46.565Z,93490.32
2022-09-11T01:25:16.152Z,93487.86
2022-09-11T01:30:26.533Z,93486.05
2022-09-11T01:35:46.531Z,93480.07
2022-09-11T01:40:58.959Z,93486.27
2022-09-11T01:46:08.573Z,93487.45
2022-09-11T01:51:19.773Z,93483.67
2022-09-11T01:56:34.472Z,93484.22
2022-09-11T02:01:45.809Z,93484.06
2022-09-11T02:07:27.195Z,93482.17
2022-09-11T02:12:47.511Z,93485.09
2022-09-11T02:18:07.505Z,93479.56
2022-09-11T02:23:15.700Z,93475.07
2022-09-11T02:28:22.344Z,93469.37
2022-09-11T02:33:36.304Z,93471.17
2022-09-11T02:38:46.474Z,93471.83
2022-09-11T02:44:35.264Z,93468.95
2022-09-11T02:49:50.072Z,93468.05
2022-09-11T02:55:23.767Z,93461.72
2022-09-11T03:00:43.892Z,93459.94
2022-09-11T03:05:50.551Z,93461.07
2022-09-11T03:10:58.357Z,93452.73
2022-09-11T03:16:08.201Z,93449.30
2022-09-11T03:21:14.864Z,93455.63
2022-09-11T03:26:21.514Z,93451.13
2022-09-11T03:31:28.842Z,93448.10
2022-09-11T03:36:35.569Z,93447.47
2022-09-11T03:41:43.259Z,93451.48
2022-09-11T03:46:49.982Z,93455.67
2022-09-11T03:51:57.564Z,93467.38
2022-09-11T03:57:04.223Z,93467.83
2022-09-11T04:02:10.877Z,93469.39
2022-09-11T04:07:17.615Z,93474.70
2022-09-11T04:12:24.320Z,93475.90
2022-09-11T04:17:32.527Z,93481.95
2022-09-11T04:22:39.520Z,93482.66
2022-09-11T04:27:46.208Z,93476.61
2022-09-11T04:32:52.906Z,93482.31
2022-09-11T04:37:59.739Z,93476.66
2022-09-11T04:43:06.776Z,93476.36
2022-09-11T04:48:13.467Z,93470.38
2022-09-11T04:53:20.148Z,93476.01
2022-09-11T04:58:26.849Z,93477.80
2022-09-11T05:03:33.590Z,93485.86
2022-09-11T05:08:40.827Z,93477.36
2022-09-11T05:13:47.609Z,93485.81
2022-09-11T05:18:55.644Z,93475.16
2022-09-11T05:24:04.810Z,93474.80
2022-09-11T05:29:15.908Z,93473.05
2022-09-11T05:34:22.580Z,93475.50
2022-09-11T05:39:29.308Z,93478.37
2022-09-11T05:44:37.681Z,93479.83
2022-09-11T05:49:44.390Z,93474.96
2022-09-11T05:54:52.066Z,93491.61
2022-09-11T05:59:59.274Z,93488.06
2022-09-11T06:05:06.169Z,93488.86
2022-09-11T06:10:12.879Z,93479.56
2022-09-11T06:15:42.906Z,93485.68
2022-09-11T06:20:27.941Z,93482.13
2022-09-11T06:25:36.209Z,93486.96
2022-09-11T06:30:44.379Z,93489.67
2022-09-11T06:36:07.114Z,93475.42
2022-09-11T06:41:17.286Z,93482.07
2022-09-11T06:46:26.492Z,93481.26
2022-09-11T06:51:34.492Z,93481.88
2022-09-11T06:56:41.448Z,93483.80
2022-09-11T07:01:48.819Z,93486.27
2022-09-11T07:06:57.427Z,93484.56
2022-09-11T07:12:04.649Z,93475.05
2022-09-11T07:17:11.261Z,93477.17
2022-09-11T07:22:17.938Z,93480.78
2022-09-11T07:27:24.830Z,93479.42
2022-09-11T07:32:31.428Z,93482.48
2022-09-11T07:37:38.631Z,93483.30
2022-09-11T07:42:45.573Z,93485.26
2022-09-11T07:47:52.500Z,93484.64
2022-09-11T07:52:59.217Z,93497.77
2022-09-11T07:58:05.921Z,93502.13
2022-09-11T08:03:13.075Z,93499.29
2022-09-11T08:08:21.220Z,93503.62
2022-09-11T08:13:27.917Z,93504.58
2022-09-11T08:18:38.224Z,93507.63
2022-09-11T08:23:46.731Z,93507.73
2022-09-11T08:28:57.119Z,93508.45
2022-09-11T08:34:03.787Z,93511.37
2022-09-11T08:39:11.362Z,93524.44
2022-09-11T08:44:37.254Z,93522.19
2022-09-11T08:49:45.030Z,93529.99
2022-09-11T08:54:51.709Z,93534.09
2022-09-11T09:00:25.435Z,93541.17
2022-09-11T09:05:54.589Z,93528.27
2022-09-11T09:11:18.259Z,93525.52
2022-09-11T09:16:54.222Z,93526.30
2022-09-11T09:22:26.709Z,93526.08
2022-09-11T09:27:41.552Z,93527.05
2022-09-11T09:33:04.899Z,93526.78
2022-09-11T09:38:21.806Z,93518.48
2022-09-11T09:43:54.731Z,93519.77
2022-09-11T09:49:02.378Z,93515.69
2022-09-11T09:54:13.714Z,93519.59
2022-09-11T09:59:30.293Z,93517.56
2022-09-11T10:04:36.999Z,93520.19
2022-09-11T10:09:55.589Z,93508.81
2022-09-11T10:15:05.002Z,93505.45
2022-09-11T10:20:26.611Z,93506.77
2022-09-11T10:25:36.299Z,93508.09
2022-09-11T10:30:50.580Z,93498.59
2022-09-11T10:36:00.684Z,93500.47
2022-09-11T10:41:21.984Z,93497.51
2022-09-11T10:46:47.338Z,93497.37
2022-09-11T10:52:05.409Z,93506.30
2022-09-11T10:57:16.799Z,93507.41
2022-09-11T11:02:36.888Z,93511.50
2022-09-11T11:08:07.960Z,93511.82
2022-09-11T11:13:29.355Z,93508.22
2022-09-11T11:18:49.203Z,93508.25
2022-09-11T11:24:16.973Z,93494.45
2022-09-11T11:29:31.076Z,93489.62
2022-09-11T11:35:21.038Z,93490.20
2022-09-11T11:40:47.589Z,93495.97
2022-09-11T11:46:00.669Z,93498.05
2022-09-11T11:51:14.991Z,93518.87
2022-09-11T11:56:52.359Z,93504.61
2022-09-11T12:02:06.627Z,93526.80
2022-09-11T12:07:31.820Z,93511.92
2022-09-11T12:12:52.109Z,93514.81
2022-09-11T12:18:06.025Z,93527.63
2022-09-11T12:23:36.267Z,93527.09
2022-09-11T12:28:44.758Z,93521.63
2022-09-11T12:33:55.138Z,93515.27
2022-09-11T12:39:23.832Z,93519.56
2022-09-11T12:44:36.082Z,93513.73
2022-09-11T12:49:45.707Z,93514.67
2022-09-11T12:54:54.804Z,93509.42
2022-09-11T13:00:06.211Z,93512.78
2022-09-11T13:05:39.353Z,93497.44
2022-09-11T13:10:47.630Z,93506.55
2022-09-11T13:15:55.932Z,93488.58
2022-09-11T13:21:13.209Z,93499.13
2022-09-11T13:26:27.158Z,93489.92
2022-09-11T13:31:39.815Z,93490.27
2022-09-11T13:36:48.269Z,93488.83
2022-09-11T13:41:59.854Z,93492.25
2022-09-11T13:47:07.842Z,93482.56
2022-09-11T13:52:15.773Z,93487.90
2022-09-11T13:57:31.431Z,93485.49
2022-09-11T14:02:42.408Z,93481.29
2022-09-11T14:08:24.894Z,93470.78
2022-09-11T14:13:45.436Z,93475.13
2022-09-11T14:19:15.825Z,93472.01
2022-09-11T14:24:37.647Z,93477.03
2022-09-11T14:29:48.917Z,93484.55
2022-09-11T14:34:55.634Z,93487.58
2022-09-11T14:40:07.238Z,93483.67
2022-09-11T14:45:26.522Z,93494.80
2022-09-11T14:50:34.682Z,93493.83
2022-09-11T14:55:41.423Z,93482.42
2022-09-11T15:00:48.611Z,93479.35
2022-09-11T15:05:58.878Z,93468.87
2022-09-11T15:11:06.290Z,93478.31
2022-09-11T15:16:14.159Z,93486.59
2022-09-11T15:21:22.306Z,93495.17
2022-09-11T15:26:28.994Z,93492.42
2022-09-11T15:31:35.703Z,93491.48
2022-09-11T15:36:43.368Z,93506.28
2022-09-11T15:41:51.522Z,93509.54
2022-09-11T15:47:00.406Z,93519.69
2022-09-11T15:52:07.070Z,93520.81
2022-09-11T15:57:13.945Z,93520.97
2022-09-11T16:02:22.361Z,93520.89
2022-09-11T16:07:29.026Z,93527.33
2022-09-11T16:12:35.611Z,93520.02
2022-09-11T16:17:42.304Z,93528.75
2022-09-11T16:22:48.915Z,93530.40
2022-09-11T16:28:00.459Z,93537.52
2022-09-11T16:33:07.179Z,93539.00
2022-09-11T16:38:15.801Z,93534.97
2022-09-11T16:43:22.521Z,93539.48
2022-09-11T16:48:34.266Z,93544.87
2022-09-11T16:53:43.593Z,93541.36
2022-09-11T16:58:51.758Z,93539.83
2022-09-11T17:04:01.421Z,93540.98
2022-09-11T17:09:08.693Z,93542.02
2022-09-11T17:14:19.106Z,93541.03
2022-09-11T17:19:25.880Z,93539.77
2022-09-11T17:24:36.683Z,93550.54
2022-09-11T17:29:45.287Z,93562.07
2022-09-11T17:34:54.332Z,93562.45
2022-09-11T17:40:02.833Z,93573.76
2022-09-11T17:45:12.954Z,93565.38
2022-09-11T17:50:19.803Z,93556.06
2022-09-11T17:55:26.823Z,93567.95
2022-09-11T18:00:34.127Z,93571.45
2022-09-11T18:05:44.899Z,93575.81
2022-09-11T18:11:02.054Z,93587.66
2022-09-11T18:16:11.506Z,93598.53
2022-09-11T18:21:17.185Z,93606.22
2022-09-11T18:26:30.777Z,93608.95
2022-09-11T18:31:44.935Z,93613.18
2022-09-11T18:36:53.163Z,93616.73
2022-09-11T18:42:00.093Z,93617.09
2022-09-11T18:47:08.002Z,93616.85
2022-09-11T18:52:15.879Z,93632.81
2022-09-11T18:57:22.562Z,93636.29
2022-09-11T19:02:29.234Z,93640.19
2022-09-11T19:07:36.653Z,93643.69
2022-09-11T19:12:44.337Z,93646.08
2022-09-11T19:17:51.992Z,93647.58
2022-09-11T19:23:02.923Z,93659.25
2022-09-11T19:28:09.878Z,93654.92
2022-09-11T19:33:16.597Z,93663.14
2022-09-11T19:38:23.436Z,93661.39
2022-09-11T19:43:36.340Z,93665.14
2022-09-11T19:48:45.508Z,93660.13
2022-09-11T19:53:58.146Z,93670.62
2022-09-11T19:59:07.440Z,93666.27
2022-09-11T20:04:16.072Z,93666.92
2022-09-11T20:09:31.370Z,93662.80
2022-09-11T20:14:33.975Z,93669.78
2022-09-11T20:19:43.087Z,93665.94
2022-09-11T20:24:50.882Z,93671.39
2022-09-11T20:30:00.519Z,93675.91
2022-09-11T20:35:07.929Z,93671.12
2022-09-11T20:40:15.349Z,93678.56
2022-09-11T20:45:23.028Z,93676.36
2022-09-11T20:50:31.047Z,93681.78
2022-09-11T20:55:39.530Z,93671.25
2022-09-11T21:00:49.715Z,93664.27
2022-09-11T21:06:00.579Z,93665.91
2022-09-11T21:11:08.412Z,93668.76
2022-09-11T21:16:20.527Z,93667.31
2022-09-11T21:21:31.222Z,93666.24
2022-09-11T21:26:38.006Z,93669.80
2022-09-11T21:31:45.487Z,93667.77
2022-09-11T21:36:52.380Z,93682.15
2022-09-11T21:41:59.755Z,93678.00
2022-09-11T21:47:07.575Z,93681.42
2022-09-11T21:52:15.315Z,93673.83
2022-09-11T21:57:24.486Z,93682.56
2022-09-11T22:02:31.167Z,93682.23
2022-09-11T22:07:41.621Z,93664.04
2022-09-11T22:12:50.498Z,93675.35
2022-09-11T22:17:57.227Z,93663.25
2022-09-11T22:23:05.574Z,93671.37
2022-09-11T22:28:12.949Z,93673.73
2022-09-11T22:33:21.217Z,93670.91
2022-09-11T22:38:28.487Z,93676.20
2022-09-11T22:43:35.623Z,93677.63
2022-09-11T22:48:43.247Z,93678.05
2022-09-11T22:53:51.766Z,93671.88
2022-09-11T22:58:59.290Z,93679.81
2022-09-11T23:04:08.187Z,93678.55
2022-09-11T23:09:20.499Z,93685.21
2022-09-11T23:14:28.248Z,93688.59
2022-09-11T23:19:37.026Z,93691.55
2022-09-11T23:24:44.721Z,93689.92
2022-09-11T23:29:53.957Z,93691.08
2022-09-11T23:35:00.685Z,93691.56
2022-09-11T23:40:11.253Z,93693.80
2022-09-11T23:45:18.894Z,93691.69
2022-09-11T23:50:25.655Z,93703.09
2022-09-11T23:55:34.480Z,93698.80
